sensor_id;sensor_type;location;lat;lon;timestamp;temperature;humidity
22682;DHT22;11508;50.856;4.380;2022-09-17T00:00:55;11.20;99.90
22682;DHT22;11508;50.856;4.380;2022-09-17T00:03:23;11.40;99.90
22682;DHT22;11508;50.856;4.380;2022-09-17T00:05:57;11.40;99.90
22682;DHT22;11508;50.856;4.380;2022-09-17T00:08:22;11.20;99.90
22682;DHT22;11508;50.856;4.380;2022-09-17T00:10:48;11.10;99.90
22682;DHT22;11508;50.856;4.380;2022-09-17T00:13:14;11.00;99.90
22682;DHT22;11508;50.856;4.380;2022-09-17T00:15:44;10.90;99.90
22682;DHT22;11508;50.856;4.380;2022-09-17T00:18:11;10.90;99.90
22682;DHT22;11508;50.856;4.380;2022-09-17T00:20:42;10.80;99.90
22682;DHT22;11508;50.856;4.380;2022-09-17T00:23:08;10.80;99.90
22682;DHT22;11508;50.856;4.380;2022-09-17T00:25:40;10.80;99.90
22682;DHT22;11508;50.856;4.380;2022-09-17T00:28:06;10.90;99.90
22682;DHT22;11508;50.856;4.380;2022-09-17T00:30:33;10.80;99.90
22682;DHT22;11508;50.856;4.380;2022-09-17T00:32:58;10.80;99.90
22682;DHT22;11508;50.856;4.380;2022-09-17T00:35:26;10.80;99.90
22682;DHT22;11508;50.856;4.380;2022-09-17T00:37:52;10.80;99.90
22682;DHT22;11508;50.856;4.380;2022-09-17T00:40:19;10.70;99.90
22682;DHT22;11508;50.856;4.380;2022-09-17T00:42:45;10.70;99.90
22682;DHT22;11508;50.856;4.380;2022-09-17T00:45:11;10.80;99.90
22682;DHT22;11508;50.856;4.380;2022-09-17T00:48:08;10.80;99.90
22682;DHT22;11508;50.856;4.380;2022-09-17T00:50:41;10.80;99.90
22682;DHT22;11508;50.856;4.380;2022-09-17T00:53:13;10.90;99.90
22682;DHT22;11508;50.856;4.380;2022-09-17T00:55:42;11.00;99.90
22682;DHT22;11508;50.856;4.380;2022-09-17T00:58:11;11.20;99.90
22682;DHT22;11508;50.856;4.380;2022-09-17T01:00:37;11.30;99.90
22682;DHT22;11508;50.856;4.380;2022-09-17T01:03:04;11.50;99.90
22682;DHT22;11508;50.856;4.380;2022-09-17T01:06:03;11.60;99.90
22682;DHT22;11508;50.856;4.380;2022-09-17T01:08:38;11.70;99.90
22682;DHT22;11508;50.856;4.380;2022-09-17T01:14:02;11.50;99.90
22682;DHT22;11508;50.856;4.380;2022-09-17T01:28:37;11.80;99.90
22682;DHT22;11508;50.856;4.380;2022-09-17T01:42:14;11.30;99.90
22682;DHT22;11508;50.856;4.380;2022-09-17T01:47:43;11.20;99.90
22682;DHT22;11508;50.856;4.380;2022-09-17T01:50:18;11.30;99.90
22682;DHT22;11508;50.856;4.380;2022-09-17T01:52:48;11.30;99.90
22682;DHT22;11508;50.856;4.380;2022-09-17T01:55:18;11.30;99.90
22682;DHT22;11508;50.856;4.380;2022-09-17T01:57:52;11.30;99.90
22682;DHT22;11508;50.856;4.380;2022-09-17T02:00:23;11.30;99.90
22682;DHT22;11508;50.856;4.380;2022-09-17T02:03:01;11.30;99.90
22682;DHT22;11508;50.856;4.380;2022-09-17T02:05:51;11.20;99.90
22682;DHT22;11508;50.856;4.380;2022-09-17T02:08:29;11.20;99.90
22682;DHT22;11508;50.856;4.380;2022-09-17T02:13:39;11.30;99.90
22682;DHT22;11508;50.856;4.380;2022-09-17T02:16:14;11.50;99.90
22682;DHT22;11508;50.856;4.380;2022-09-17T02:19:08;11.70;99.90
22682;DHT22;11508;50.856;4.380;2022-09-17T02:21:59;11.60;99.90
22682;DHT22;11508;50.856;4.380;2022-09-17T02:29:46;11.70;99.90
22682;DHT22;11508;50.856;4.380;2022-09-17T02:32:12;11.60;99.90
22682;DHT22;11508;50.856;4.380;2022-09-17T02:34:38;11.60;99.90
22682;DHT22;11508;50.856;4.380;2022-09-17T02:37:05;11.80;99.90
22682;DHT22;11508;50.856;4.380;2022-09-17T02:39:31;11.60;99.90
22682;DHT22;11508;50.856;4.380;2022-09-17T02:42:02;11.70;99.90
22682;DHT22;11508;50.856;4.380;2022-09-17T02:47:27;11.90;99.90
22682;DHT22;11508;50.856;4.380;2022-09-17T02:56:09;11.70;99.90
22682;DHT22;11508;50.856;4.380;2022-09-17T02:58:57;11.60;99.90
22682;DHT22;11508;50.856;4.380;2022-09-17T03:02:13;11.50;99.90
22682;DHT22;11508;50.856;4.380;2022-09-17T03:04:30;11.60;99.90
22682;DHT22;11508;50.856;4.380;2022-09-17T03:06:56;11.50;99.90
22682;DHT22;11508;50.856;4.380;2022-09-17T03:09:24;11.50;99.90
22682;DHT22;11508;50.856;4.380;2022-09-17T03:11:50;11.50;99.90
22682;DHT22;11508;50.856;4.380;2022-09-17T03:14:15;11.40;99.90
22682;DHT22;11508;50.856;4.380;2022-09-17T03:16:41;11.40;99.90
22682;DHT22;11508;50.856;4.380;2022-09-17T03:19:07;11.30;99.90
22682;DHT22;11508;50.856;4.380;2022-09-17T03:21:32;11.30;99.90
22682;DHT22;11508;50.856;4.380;2022-09-17T03:23:58;11.20;99.90
22682;DHT22;11508;50.856;4.380;2022-09-17T03:26:25;11.10;99.90
22682;DHT22;11508;50.856;4.380;2022-09-17T03:28:51;11.10;99.90
22682;DHT22;11508;50.856;4.380;2022-09-17T03:31:17;11.00;99.90
22682;DHT22;11508;50.856;4.380;2022-09-17T03:33:43;11.00;99.90
22682;DHT22;11508;50.856;4.380;2022-09-17T03:36:08;11.00;99.90
22682;DHT22;11508;50.856;4.380;2022-09-17T03:38:34;10.90;99.90
22682;DHT22;11508;50.856;4.380;2022-09-17T03:41:04;10.80;99.90
22682;DHT22;11508;50.856;4.380;2022-09-17T03:43:32;10.80;99.90
22682;DHT22;11508;50.856;4.380;2022-09-17T03:45:57;10.80;99.90
22682;DHT22;11508;50.856;4.380;2022-09-17T03:48:23;10.80;99.90
22682;DHT22;11508;50.856;4.380;2022-09-17T03:50:49;10.80;99.90
22682;DHT22;11508;50.856;4.380;2022-09-17T03:53:15;10.90;99.90
22682;DHT22;11508;50.856;4.380;2022-09-17T03:55:41;11.10;99.90
22682;DHT22;11508;50.856;4.380;2022-09-17T03:58:07;10.90;99.90
22682;DHT22;11508;50.856;4.380;2022-09-17T04:00:33;10.80;99.90
22682;DHT22;11508;50.856;4.380;2022-09-17T04:03:02;10.70;99.90
22682;DHT22;11508;50.856;4.380;2022-09-17T04:05:28;10.60;99.90
22682;DHT22;11508;50.856;4.380;2022-09-17T04:07:54;10.60;99.90
22682;DHT22;11508;50.856;4.380;2022-09-17T04:10:20;10.60;99.90
22682;DHT22;11508;50.856;4.380;2022-09-17T04:12:45;10.60;99.90
22682;DHT22;11508;50.856;4.380;2022-09-17T04:15:11;10.60;99.90
22682;DHT22;11508;50.856;4.380;2022-09-17T04:17:37;10.50;99.90
22682;DHT22;11508;50.856;4.380;2022-09-17T04:20:03;10.50;99.90
22682;DHT22;11508;50.856;4.380;2022-09-17T04:22:30;10.50;99.90
22682;DHT22;11508;50.856;4.380;2022-09-17T04:24:56;10.50;99.90
22682;DHT22;11508;50.856;4.380;2022-09-17T04:27:22;10.50;99.90
22682;DHT22;11508;50.856;4.380;2022-09-17T04:29:48;10.50;99.90
22682;DHT22;11508;50.856;4.380;2022-09-17T04:32:14;10.50;99.90
22682;DHT22;11508;50.856;4.380;2022-09-17T04:34:40;10.50;99.90
22682;DHT22;11508;50.856;4.380;2022-09-17T04:37:06;10.40;99.90
22682;DHT22;11508;50.856;4.380;2022-09-17T04:39:31;10.40;99.90
22682;DHT22;11508;50.856;4.380;2022-09-17T04:41:57;10.40;99.90
22682;DHT22;11508;50.856;4.380;2022-09-17T04:44:23;10.40;99.90
22682;DHT22;11508;50.856;4.380;2022-09-17T04:46:48;10.40;99.90
22682;DHT22;11508;50.856;4.380;2022-09-17T04:49:14;10.50;99.90
22682;DHT22;11508;50.856;4.380;2022-09-17T04:51:40;10.60;99.90
22682;DHT22;11508;50.856;4.380;2022-09-17T04:54:05;10.60;99.90
22682;DHT22;11508;50.856;4.380;2022-09-17T04:56:31;10.70;99.90
22682;DHT22;11508;50.856;4.380;2022-09-17T04:58:57;10.80;99.90
22682;DHT22;11508;50.856;4.380;2022-09-17T05:01:23;10.80;99.90
22682;DHT22;11508;50.856;4.380;2022-09-17T05:03:48;10.80;99.90
22682;DHT22;11508;50.856;4.380;2022-09-17T05:06:14;10.80;99.90
22682;DHT22;11508;50.856;4.380;2022-09-17T05:08:40;11.00;99.90
22682;DHT22;11508;50.856;4.380;2022-09-17T05:11:05;10.90;99.90
22682;DHT22;11508;50.856;4.380;2022-09-17T05:13:31;10.80;99.90
22682;DHT22;11508;50.856;4.380;2022-09-17T05:15:57;10.80;99.90
22682;DHT22;11508;50.856;4.380;2022-09-17T05:18:23;10.70;99.90
22682;DHT22;11508;50.856;4.380;2022-09-17T05:20:49;10.80;99.90
22682;DHT22;11508;50.856;4.380;2022-09-17T05:23:15;10.80;99.90
22682;DHT22;11508;50.856;4.380;2022-09-17T05:25:40;10.80;99.90
22682;DHT22;11508;50.856;4.380;2022-09-17T05:28:06;10.80;99.90
22682;DHT22;11508;50.856;4.380;2022-09-17T05:30:32;10.70;99.90
22682;DHT22;11508;50.856;4.380;2022-09-17T05:33:03;10.80;99.90
22682;DHT22;11508;50.856;4.380;2022-09-17T05:35:29;10.80;99.90
22682;DHT22;11508;50.856;4.380;2022-09-17T05:37:59;10.80;99.90
22682;DHT22;11508;50.856;4.380;2022-09-17T05:40:25;10.80;99.90
22682;DHT22;11508;50.856;4.380;2022-09-17T05:42:56;11.00;99.90
22682;DHT22;11508;50.856;4.380;2022-09-17T05:45:22;11.20;99.90
22682;DHT22;11508;50.856;4.380;2022-09-17T05:47:47;11.40;99.90
22682;DHT22;11508;50.856;4.380;2022-09-17T05:50:13;11.60;99.90
22682;DHT22;11508;50.856;4.380;2022-09-17T05:52:39;11.60;99.90
22682;DHT22;11508;50.856;4.380;2022-09-17T05:55:05;11.50;99.90
22682;DHT22;11508;50.856;4.380;2022-09-17T05:57:30;11.50;99.90
22682;DHT22;11508;50.856;4.380;2022-09-17T05:59:56;11.50;99.90
22682;DHT22;11508;50.856;4.380;2022-09-17T06:02:22;11.50;99.90
22682;DHT22;11508;50.856;4.380;2022-09-17T06:04:47;11.40;99.90
22682;DHT22;11508;50.856;4.380;2022-09-17T06:07:13;11.30;99.90
22682;DHT22;11508;50.856;4.380;2022-09-17T06:09:39;11.30;99.90
22682;DHT22;11508;50.856;4.380;2022-09-17T06:12:05;11.20;99.90
22682;DHT22;11508;50.856;4.380;2022-09-17T06:14:31;11.10;99.90
22682;DHT22;11508;50.856;4.380;2022-09-17T06:16:57;11.20;99.90
22682;DHT22;11508;50.856;4.380;2022-09-17T06:19:22;11.40;99.90
22682;DHT22;11508;50.856;4.380;2022-09-17T06:21:48;11.30;99.90
22682;DHT22;11508;50.856;4.380;2022-09-17T06:24:15;11.30;99.90
22682;DHT22;11508;50.856;4.380;2022-09-17T06:26:41;11.20;99.90
22682;DHT22;11508;50.856;4.380;2022-09-17T06:29:06;11.10;99.90
22682;DHT22;11508;50.856;4.380;2022-09-17T06:31:32;11.10;99.90
22682;DHT22;11508;50.856;4.380;2022-09-17T06:33:58;11.20;99.90
22682;DHT22;11508;50.856;4.380;2022-09-17T06:36:23;11.30;99.90
22682;DHT22;11508;50.856;4.380;2022-09-17T06:38:49;11.30;99.90
22682;DHT22;11508;50.856;4.380;2022-09-17T06:41:15;11.30;99.90
22682;DHT22;11508;50.856;4.380;2022-09-17T06:43:41;11.40;99.90
22682;DHT22;11508;50.856;4.380;2022-09-17T06:46:09;11.40;99.90
22682;DHT22;11508;50.856;4.380;2022-09-17T06:48:36;11.40;99.90
22682;DHT22;11508;50.856;4.380;2022-09-17T06:51:04;11.40;99.90
22682;DHT22;11508;50.856;4.380;2022-09-17T06:53:31;11.30;99.90
22682;DHT22;11508;50.856;4.380;2022-09-17T06:55:58;11.30;99.90
22682;DHT22;11508;50.856;4.380;2022-09-17T06:58:28;11.40;99.90
22682;DHT22;11508;50.856;4.380;2022-09-17T07:01:00;11.40;99.90
22682;DHT22;11508;50.856;4.380;2022-09-17T07:03:27;11.50;99.90
22682;DHT22;11508;50.856;4.380;2022-09-17T07:05:53;11.60;99.90
22682;DHT22;11508;50.856;4.380;2022-09-17T07:08:19;11.70;99.90
22682;DHT22;11508;50.856;4.380;2022-09-17T07:10:45;11.70;99.90
22682;DHT22;11508;50.856;4.380;2022-09-17T07:13:10;11.70;99.90
22682;DHT22;11508;50.856;4.380;2022-09-17T07:15:36;11.70;99.90
22682;DHT22;11508;50.856;4.380;2022-09-17T07:18:09;11.60;99.90
22682;DHT22;11508;50.856;4.380;2022-09-17T07:20:36;11.70;99.90
22682;DHT22;11508;50.856;4.380;2022-09-17T07:23:02;11.70;99.90
22682;DHT22;11508;50.856;4.380;2022-09-17T07:25:27;11.80;99.90
22682;DHT22;11508;50.856;4.380;2022-09-17T07:27:53;11.90;99.90
22682;DHT22;11508;50.856;4.380;2022-09-17T07:30:20;11.70;99.90
22682;DHT22;11508;50.856;4.380;2022-09-17T07:32:46;11.70;99.90
22682;DHT22;11508;50.856;4.380;2022-09-17T07:35:12;11.70;99.90
22682;DHT22;11508;50.856;4.380;2022-09-17T07:37:38;11.70;99.90
22682;DHT22;11508;50.856;4.380;2022-09-17T07:40:04;11.70;99.90
22682;DHT22;11508;50.856;4.380;2022-09-17T07:42:33;11.90;99.90
22682;DHT22;11508;50.856;4.380;2022-09-17T07:44:59;12.00;99.90
22682;DHT22;11508;50.856;4.380;2022-09-17T07:47:25;12.20;99.90
22682;DHT22;11508;50.856;4.380;2022-09-17T07:49:51;12.30;99.90
22682;DHT22;11508;50.856;4.380;2022-09-17T07:52:17;12.30;99.90
22682;DHT22;11508;50.856;4.380;2022-09-17T07:54:42;12.40;99.90
22682;DHT22;11508;50.856;4.380;2022-09-17T07:57:08;12.30;99.90
22682;DHT22;11508;50.856;4.380;2022-09-17T07:59:34;12.20;99.90
22682;DHT22;11508;50.856;4.380;2022-09-17T08:01:59;12.30;99.90
22682;DHT22;11508;50.856;4.380;2022-09-17T08:04:25;12.50;99.90
22682;DHT22;11508;50.856;4.380;2022-09-17T08:06:51;12.70;99.90
22682;DHT22;11508;50.856;4.380;2022-09-17T08:09:17;13.00;99.90
22682;DHT22;11508;50.856;4.380;2022-09-17T08:11:43;12.90;99.90
22682;DHT22;11508;50.856;4.380;2022-09-17T08:14:11;12.70;99.90
22682;DHT22;11508;50.856;4.380;2022-09-17T08:16:37;12.30;99.90
22682;DHT22;11508;50.856;4.380;2022-09-17T08:19:04;12.30;99.90
22682;DHT22;11508;50.856;4.380;2022-09-17T08:21:29;12.50;99.90
22682;DHT22;11508;50.856;4.380;2022-09-17T08:23:55;12.60;99.90
22682;DHT22;11508;50.856;4.380;2022-09-17T08:26:22;12.80;99.90
22682;DHT22;11508;50.856;4.380;2022-09-17T08:28:49;12.90;99.90
22682;DHT22;11508;50.856;4.380;2022-09-17T08:31:18;13.00;99.90
22682;DHT22;11508;50.856;4.380;2022-09-17T08:33:44;13.10;99.90
22682;DHT22;11508;50.856;4.380;2022-09-17T08:36:13;13.10;99.90
22682;DHT22;11508;50.856;4.380;2022-09-17T08:38:40;13.30;99.90
22682;DHT22;11508;50.856;4.380;2022-09-17T08:41:10;13.30;99.90
22682;DHT22;11508;50.856;4.380;2022-09-17T08:46:39;13.80;99.90
22682;DHT22;11508;50.856;4.380;2022-09-17T08:54:53;14.20;99.90
22682;DHT22;11508;50.856;4.380;2022-09-17T08:57:46;14.20;99.90
22682;DHT22;11508;50.856;4.380;2022-09-17T09:00:21;14.10;99.90
22682;DHT22;11508;50.856;4.380;2022-09-17T09:05:45;14.20;99.90
22682;DHT22;11508;50.856;4.380;2022-09-17T09:08:24;14.50;99.90
22682;DHT22;11508;50.856;4.380;2022-09-17T09:10:57;14.60;99.90
22682;DHT22;11508;50.856;4.380;2022-09-17T09:13:28;14.80;99.90
22682;DHT22;11508;50.856;4.380;2022-09-17T09:16:05;15.10;99.90
22682;DHT22;11508;50.856;4.380;2022-09-17T09:18:37;15.10;99.90
22682;DHT22;11508;50.856;4.380;2022-09-17T09:21:17;15.20;99.90
22682;DHT22;11508;50.856;4.380;2022-09-17T09:26:46;14.50;99.90
22682;DHT22;11508;50.856;4.380;2022-09-17T09:31:54;14.70;99.90
22682;DHT22;11508;50.856;4.380;2022-09-17T09:34:25;14.40;99.90
22682;DHT22;11508;50.856;4.380;2022-09-17T09:40:40;14.20;99.90
22682;DHT22;11508;50.856;4.380;2022-09-17T09:43:21;14.50;99.90
22682;DHT22;11508;50.856;4.380;2022-09-17T09:56:35;14.60;99.90
22682;DHT22;11508;50.856;4.380;2022-09-17T09:59:11;14.70;99.90
22682;DHT22;11508;50.856;4.380;2022-09-17T10:01:40;14.90;99.90
22682;DHT22;11508;50.856;4.380;2022-09-17T10:04:22;15.30;99.90
22682;DHT22;11508;50.856;4.380;2022-09-17T10:06:51;15.40;99.90
22682;DHT22;11508;50.856;4.380;2022-09-17T10:09:20;15.60;99.90
22682;DHT22;11508;50.856;4.380;2022-09-17T10:12:13;15.00;99.90
22682;DHT22;11508;50.856;4.380;2022-09-17T10:14:43;14.90;99.90
22682;DHT22;11508;50.856;4.380;2022-09-17T10:17:17;14.80;99.90
22682;DHT22;11508;50.856;4.380;2022-09-17T10:20:08;14.60;99.90
22682;DHT22;11508;50.856;4.380;2022-09-17T10:22:46;14.90;99.90
22682;DHT22;11508;50.856;4.380;2022-09-17T10:25:33;14.80;99.90
22682;DHT22;11508;50.856;4.380;2022-09-17T10:28:05;14.90;99.90
22682;DHT22;11508;50.856;4.380;2022-09-17T10:31:02;14.90;99.90
22682;DHT22;11508;50.856;4.380;2022-09-17T10:33:30;15.00;99.90
22682;DHT22;11508;50.856;4.380;2022-09-17T10:36:11;15.10;99.90
22682;DHT22;11508;50.856;4.380;2022-09-17T10:38:44;15.00;99.90
22682;DHT22;11508;50.856;4.380;2022-09-17T10:41:19;15.00;99.90
22682;DHT22;11508;50.856;4.380;2022-09-17T10:43:49;14.80;99.90
22682;DHT22;11508;50.856;4.380;2022-09-17T10:46:26;14.80;99.90
22682;DHT22;11508;50.856;4.380;2022-09-17T10:49:08;14.90;99.90
22682;DHT22;11508;50.856;4.380;2022-09-17T10:51:36;15.00;99.90
22682;DHT22;11508;50.856;4.380;2022-09-17T10:54:13;15.30;99.90
22682;DHT22;11508;50.856;4.380;2022-09-17T10:56:48;15.00;99.90
22682;DHT22;11508;50.856;4.380;2022-09-17T11:02:12;15.30;99.90
22682;DHT22;11508;50.856;4.380;2022-09-17T11:05:19;15.10;99.90
22682;DHT22;11508;50.856;4.380;2022-09-17T11:08:07;14.90;99.90
22682;DHT22;11508;50.856;4.380;2022-09-17T11:10:49;14.80;99.90
22682;DHT22;11508;50.856;4.380;2022-09-17T11:21:41;16.00;99.90
22682;DHT22;11508;50.856;4.380;2022-09-17T11:29:39;15.00;99.90
22682;DHT22;11508;50.856;4.380;2022-09-17T11:38:07;14.50;99.90
22682;DHT22;11508;50.856;4.380;2022-09-17T11:40:51;14.60;99.90
22682;DHT22;11508;50.856;4.380;2022-09-17T11:43:32;14.20;99.90
22682;DHT22;11508;50.856;4.380;2022-09-17T11:46:26;14.20;99.90
22682;DHT22;11508;50.856;4.380;2022-09-17T11:49:11;14.60;99.90
22682;DHT22;11508;50.856;4.380;2022-09-17T11:51:42;14.30;99.90
22682;DHT22;11508;50.856;4.380;2022-09-17T11:56:50;14.50;99.90
22682;DHT22;11508;50.856;4.380;2022-09-17T11:59:33;14.70;99.90
22682;DHT22;11508;50.856;4.380;2022-09-17T12:07:34;15.70;99.90
22682;DHT22;11508;50.856;4.380;2022-09-17T12:21:53;15.30;63.00
22682;DHT22;11508;50.856;4.380;2022-09-17T12:24:26;15.50;73.60
22682;DHT22;11508;50.856;4.380;2022-09-17T12:30:12;15.80;72.80
22682;DHT22;11508;50.856;4.380;2022-09-17T12:33:45;16.30;69.90
22682;DHT22;11508;50.856;4.380;2022-09-17T12:41:15;16.30;48.20
22682;DHT22;11508;50.856;4.380;2022-09-17T12:49:58;15.60;72.00
22682;DHT22;11508;50.856;4.380;2022-09-17T12:52:51;15.40;90.70
22682;DHT22;11508;50.856;4.380;2022-09-17T13:00:45;15.10;99.00
22682;DHT22;11508;50.856;4.380;2022-09-17T13:03:23;14.60;98.90
22682;DHT22;11508;50.856;4.380;2022-09-17T13:09:04;13.70;99.90
22682;DHT22;11508;50.856;4.380;2022-09-17T13:11:49;13.50;99.90
22682;DHT22;11508;50.856;4.380;2022-09-17T13:14:23;13.40;99.90
22682;DHT22;11508;50.856;4.380;2022-09-17T13:17:09;13.30;99.90
22682;DHT22;11508;50.856;4.380;2022-09-17T13:22:29;13.30;97.60
22682;DHT22;11508;50.856;4.380;2022-09-17T13:25:09;13.80;93.70
22682;DHT22;11508;50.856;4.380;2022-09-17T13:27:37;14.00;92.80
22682;DHT22;11508;50.856;4.380;2022-09-17T13:30:08;14.20;92.50
22682;DHT22;11508;50.856;4.380;2022-09-17T13:37:58;14.30;96.10
22682;DHT22;11508;50.856;4.380;2022-09-17T13:40:35;14.30;98.40
22682;DHT22;11508;50.856;4.380;2022-09-17T13:43:07;14.50;99.90
22682;DHT22;11508;50.856;4.380;2022-09-17T13:46:19;15.00;97.00
22682;DHT22;11508;50.856;4.380;2022-09-17T13:48:49;15.60;88.50
22682;DHT22;11508;50.856;4.380;2022-09-17T13:54:05;16.30;49.80
22682;DHT22;11508;50.856;4.380;2022-09-17T13:56:42;16.30;38.30
22682;DHT22;11508;50.856;4.380;2022-09-17T13:59:17;16.50;35.80
22682;DHT22;11508;50.856;4.380;2022-09-17T14:09:57;16.50;18.10
22682;DHT22;11508;50.856;4.380;2022-09-17T14:21:04;15.80;39.70
22682;DHT22;11508;50.856;4.380;2022-09-17T14:23:40;15.90;32.80
22682;DHT22;11508;50.856;4.380;2022-09-17T14:26:11;16.00;25.60
22682;DHT22;11508;50.856;4.380;2022-09-17T14:31:18;15.90;22.10
22682;DHT22;11508;50.856;4.380;2022-09-17T14:33:46;15.90;36.10
22682;DHT22;11508;50.856;4.380;2022-09-17T14:36:18;15.80;58.10
22682;DHT22;11508;50.856;4.380;2022-09-17T14:38:50;15.40;66.50
22682;DHT22;11508;50.856;4.380;2022-09-17T14:41:43;15.00;81.60
22682;DHT22;11508;50.856;4.380;2022-09-17T14:44:20;14.60;95.20
22682;DHT22;11508;50.856;4.380;2022-09-17T14:47:02;14.60;95.10
22682;DHT22;11508;50.856;4.380;2022-09-17T14:49:33;14.40;99.90
22682;DHT22;11508;50.856;4.380;2022-09-17T14:52:00;14.20;99.90
22682;DHT22;11508;50.856;4.380;2022-09-17T14:54:32;14.10;99.90
22682;DHT22;11508;50.856;4.380;2022-09-17T14:57:00;14.00;99.90
22682;DHT22;11508;50.856;4.380;2022-09-17T14:59:46;13.80;99.90
22682;DHT22;11508;50.856;4.380;2022-09-17T15:04:58;13.90;99.90
22682;DHT22;11508;50.856;4.380;2022-09-17T15:07:27;13.80;99.90
22682;DHT22;11508;50.856;4.380;2022-09-17T15:09:53;13.80;99.90
22682;DHT22;11508;50.856;4.380;2022-09-17T15:12:24;13.90;99.90
22682;DHT22;11508;50.856;4.380;2022-09-17T15:14:53;14.00;99.90
22682;DHT22;11508;50.856;4.380;2022-09-17T15:17:20;14.20;99.90
22682;DHT22;11508;50.856;4.380;2022-09-17T15:19:48;14.20;99.90
22682;DHT22;11508;50.856;4.380;2022-09-17T15:22:28;14.30;99.90
22682;DHT22;11508;50.856;4.380;2022-09-17T15:25:09;14.50;99.90
22682;DHT22;11508;50.856;4.380;2022-09-17T15:27:39;14.60;99.90
22682;DHT22;11508;50.856;4.380;2022-09-17T15:30:13;14.50;99.90
22682;DHT22;11508;50.856;4.380;2022-09-17T15:32:42;14.60;99.90
22682;DHT22;11508;50.856;4.380;2022-09-17T15:37:52;14.70;99.90
22682;DHT22;11508;50.856;4.380;2022-09-17T15:40:27;14.70;99.90
22682;DHT22;11508;50.856;4.380;2022-09-17T15:43:03;14.70;99.40
22682;DHT22;11508;50.856;4.380;2022-09-17T15:45:32;14.50;99.90
22682;DHT22;11508;50.856;4.380;2022-09-17T15:48:04;14.70;99.90
22682;DHT22;11508;50.856;4.380;2022-09-17T15:50:34;14.60;99.90
22682;DHT22;11508;50.856;4.380;2022-09-17T15:53:26;14.40;99.90
22682;DHT22;11508;50.856;4.380;2022-09-17T15:56:13;14.40;98.90
22682;DHT22;11508;50.856;4.380;2022-09-17T16:08:48;14.40;97.80
22682;DHT22;11508;50.856;4.380;2022-09-17T16:11:14;14.10;99.90
22682;DHT22;11508;50.856;4.380;2022-09-17T16:13:40;14.20;99.90
22682;DHT22;11508;50.856;4.380;2022-09-17T16:16:11;14.30;99.90
22682;DHT22;11508;50.856;4.380;2022-09-17T16:18:38;14.40;99.80
22682;DHT22;11508;50.856;4.380;2022-09-17T16:21:04;14.40;99.20
22682;DHT22;11508;50.856;4.380;2022-09-17T16:23:30;14.40;99.90
22682;DHT22;11508;50.856;4.380;2022-09-17T16:25:56;14.00;99.90
22682;DHT22;11508;50.856;4.380;2022-09-17T16:28:22;14.10;99.90
22682;DHT22;11508;50.856;4.380;2022-09-17T16:30:48;14.10;99.90
22682;DHT22;11508;50.856;4.380;2022-09-17T16:33:15;14.10;99.90
22682;DHT22;11508;50.856;4.380;2022-09-17T16:35:42;14.00;99.90
22682;DHT22;11508;50.856;4.380;2022-09-17T16:38:10;14.00;99.90
22682;DHT22;11508;50.856;4.380;2022-09-17T16:40:45;14.20;99.90
22682;DHT22;11508;50.856;4.380;2022-09-17T16:43:14;14.30;99.90
22682;DHT22;11508;50.856;4.380;2022-09-17T16:45:40;14.00;99.90
22682;DHT22;11508;50.856;4.380;2022-09-17T16:48:06;13.90;99.90
22682;DHT22;11508;50.856;4.380;2022-09-17T16:50:38;13.60;99.90
22682;DHT22;11508;50.856;4.380;2022-09-17T16:53:05;13.60;99.90
22682;DHT22;11508;50.856;4.380;2022-09-17T16:55:31;13.50;99.90
22682;DHT22;11508;50.856;4.380;2022-09-17T16:57:57;13.50;99.90
22682;DHT22;11508;50.856;4.380;2022-09-17T17:00:23;13.40;99.90
22682;DHT22;11508;50.856;4.380;2022-09-17T17:02:54;13.30;99.90
22682;DHT22;11508;50.856;4.380;2022-09-17T17:05:20;13.20;99.90
22682;DHT22;11508;50.856;4.380;2022-09-17T17:07:46;13.20;99.90
22682;DHT22;11508;50.856;4.380;2022-09-17T17:10:12;13.10;99.90
22682;DHT22;11508;50.856;4.380;2022-09-17T17:12:38;13.20;99.90
22682;DHT22;11508;50.856;4.380;2022-09-17T17:15:05;13.30;99.90
22682;DHT22;11508;50.856;4.380;2022-09-17T17:17:31;13.20;99.90
22682;DHT22;11508;50.856;4.380;2022-09-17T17:19:58;13.10;99.90
22682;DHT22;11508;50.856;4.380;2022-09-17T17:22:23;13.10;99.90
22682;DHT22;11508;50.856;4.380;2022-09-17T17:24:49;13.20;99.90
22682;DHT22;11508;50.856;4.380;2022-09-17T17:27:15;13.10;99.90
22682;DHT22;11508;50.856;4.380;2022-09-17T17:29:40;13.10;99.90
22682;DHT22;11508;50.856;4.380;2022-09-17T17:32:06;13.10;99.90
22682;DHT22;11508;50.856;4.380;2022-09-17T17:34:32;13.10;99.90
22682;DHT22;11508;50.856;4.380;2022-09-17T17:36:58;13.20;99.90
22682;DHT22;11508;50.856;4.380;2022-09-17T17:39:24;13.30;99.90
22682;DHT22;11508;50.856;4.380;2022-09-17T17:41:50;13.20;99.90
22682;DHT22;11508;50.856;4.380;2022-09-17T17:44:18;13.10;99.90
22682;DHT22;11508;50.856;4.380;2022-09-17T17:46:44;13.10;99.90
22682;DHT22;11508;50.856;4.380;2022-09-17T17:49:10;13.20;99.90
22682;DHT22;11508;50.856;4.380;2022-09-17T17:51:36;13.10;99.90
22682;DHT22;11508;50.856;4.380;2022-09-17T17:54:01;13.10;99.90
22682;DHT22;11508;50.856;4.380;2022-09-17T17:56:27;13.00;99.90
22682;DHT22;11508;50.856;4.380;2022-09-17T17:58:54;13.00;99.90
22682;DHT22;11508;50.856;4.380;2022-09-17T18:01:24;13.10;99.90
22682;DHT22;11508;50.856;4.380;2022-09-17T18:03:55;13.20;99.90
22682;DHT22;11508;50.856;4.380;2022-09-17T18:06:21;13.10;99.90
22682;DHT22;11508;50.856;4.380;2022-09-17T18:08:47;13.00;99.90
22682;DHT22;11508;50.856;4.380;2022-09-17T18:11:13;13.00;99.90
22682;DHT22;11508;50.856;4.380;2022-09-17T18:13:39;13.10;99.90
22682;DHT22;11508;50.856;4.380;2022-09-17T18:16:06;13.20;99.90
22682;DHT22;11508;50.856;4.380;2022-09-17T18:18:38;13.00;99.90
22682;DHT22;11508;50.856;4.380;2022-09-17T18:21:06;12.80;99.90
22682;DHT22;11508;50.856;4.380;2022-09-17T18:23:34;12.90;99.90
22682;DHT22;11508;50.856;4.380;2022-09-17T18:26:01;13.00;99.90
22682;DHT22;11508;50.856;4.380;2022-09-17T18:28:28;13.00;99.90
22682;DHT22;11508;50.856;4.380;2022-09-17T18:30:55;12.90;99.90
22682;DHT22;11508;50.856;4.380;2022-09-17T18:33:24;12.80;99.90
22682;DHT22;11508;50.856;4.380;2022-09-17T18:35:51;13.00;99.90
22682;DHT22;11508;50.856;4.380;2022-09-17T18:38:22;13.10;99.90
22682;DHT22;11508;50.856;4.380;2022-09-17T18:40:48;13.20;99.90
22682;DHT22;11508;50.856;4.380;2022-09-17T18:43:15;12.90;99.90
22682;DHT22;11508;50.856;4.380;2022-09-17T18:45:40;12.80;99.90
22682;DHT22;11508;50.856;4.380;2022-09-17T18:48:06;12.70;99.90
22682;DHT22;11508;50.856;4.380;2022-09-17T18:50:32;12.60;99.90
22682;DHT22;11508;50.856;4.380;2022-09-17T18:52:58;12.50;99.90
22682;DHT22;11508;50.856;4.380;2022-09-17T18:55:25;12.60;99.90
22682;DHT22;11508;50.856;4.380;2022-09-17T18:57:51;12.50;99.90